Time;durP1;ratioP1;P1;durP2;ratioP2;P2;SDS_P1;SDS_P2;PMS_P1;PMS_P2;Temp;Humidity;BMP_temperature;BMP_pressure;BME280_temperature;BME280_humidity;BME280_pressure;Samples;Min_cycle;Max_cycle;Signal;HPM_P1;HPM_P2
2022/08/02 00:02:03;;;;;;;5.08;2.75;;;;;;;18.14;66.08;101285.41;1663780;85;21163;-90
2022/08/02 00:04:31;;;;;;;4.62;2.58;;;;;;;18.11;66.03;101284.06;1664154;86;22375;-91
2022/08/02 00:06:58;;;;;;;6.10;2.40;;;;;;;18.08;66.02;101281.86;1646637;85;21096;-91
2022/08/02 00:09:27;;;;;;;3.30;2.45;;;;;;;18.06;66.03;101284.06;1636184;85;21440;-91
2022/08/02 00:11:54;;;;;;;4.58;3.08;;;;;;;18.05;65.97;101283.59;1649740;86;21699;-91
2022/08/02 00:14:22;;;;;;;4.60;2.80;;;;;;;18.03;65.96;101280.05;1641128;85;21100;-90
2022/08/02 00:16:49;;;;;;;3.50;2.55;;;;;;;18.03;65.98;101275.17;1666132;85;21097;-91
2022/08/02 00:19:16;;;;;;;5.60;2.65;;;;;;;18.04;65.97;101280.51;1657414;85;21072;-91
2022/08/02 00:21:43;;;;;;;6.05;2.30;;;;;;;18.04;65.96;101276.52;1647759;85;21078;-90
2022/08/02 00:24:10;;;;;;;5.35;2.42;;;;;;;18.04;65.94;101275.63;1650037;85;21813;-91
2022/08/02 00:26:36;;;;;;;4.65;2.50;;;;;;;18.03;65.98;101277.83;1646078;84;21078;-91
2022/08/02 00:29:03;;;;;;;4.28;2.70;;;;;;;18.02;65.98;101279.62;1653136;86;21077;-90
2022/08/02 00:31:30;;;;;;;4.33;2.67;;;;;;;18.01;66.06;101283.16;1651845;86;21069;-85
2022/08/02 00:33:57;;;;;;;6.28;2.62;;;;;;;17.99;66.12;101280.93;1663896;85;21077;-85
2022/08/02 00:36:23;;;;;;;5.20;2.40;;;;;;;17.98;66.20;101276.92;1648861;86;21730;-85
2022/08/02 00:38:50;;;;;;;4.62;2.95;;;;;;;17.96;66.30;101278.28;1659709;85;21272;-85
2022/08/02 00:41:20;;;;;;;3.90;2.45;;;;;;;17.93;66.39;101277.37;1663365;85;21090;-85
2022/08/02 00:43:47;;;;;;;3.65;2.75;;;;;;;17.92;66.52;101276.91;1663597;85;21176;-85
2022/08/02 00:46:15;;;;;;;5.12;2.60;;;;;;;17.93;66.66;101284.91;1663513;85;21803;-85
2022/08/02 00:48:42;;;;;;;6.58;2.42;;;;;;;17.95;66.81;101283.59;1664174;84;22241;-84
2022/08/02 00:51:09;;;;;;;7.10;2.47;;;;;;;17.95;66.92;101288.92;1664643;85;21054;-85
2022/08/02 00:53:36;;;;;;;7.92;2.50;;;;;;;17.95;67.08;101289.80;1664334;85;21083;-85
2022/08/02 00:56:03;;;;;;;6.85;2.87;;;;;;;17.96;67.21;101296.92;1664483;84;21102;-85
2022/08/02 00:58:30;;;;;;;4.50;3.05;;;;;;;17.96;67.32;101294.26;1664641;85;21130;-85
2022/08/02 01:03:48;;;;;;;4.15;2.70;;;;;;;17.94;67.52;101293.34;1664581;85;21659;-85
2022/08/02 01:06:15;;;;;;;3.70;2.80;;;;;;;17.93;67.66;101291.58;1664388;85;21047;-85
2022/08/02 01:08:42;;;;;;;3.77;2.70;;;;;;;17.91;67.70;101288.02;1671973;84;21139;-85
2022/08/02 01:11:09;;;;;;;3.47;2.70;;;;;;;17.91;67.89;101289.35;1664150;84;21051;-85
2022/08/02 01:13:36;;;;;;;3.58;2.65;;;;;;;17.88;67.90;101290.66;1664845;84;21749;-85
2022/08/02 01:16:13;;;;;;;5.62;2.90;;;;;;;17.87;68.02;101283.57;1664699;84;21080;-91
2022/08/02 01:18:44;;;;;;;6.15;3.02;;;;;;;17.85;68.11;101286.22;1664900;85;21341;-91
2022/08/02 01:21:28;;;;;;;6.95;3.22;;;;;;;17.82;68.24;101283.95;1665056;84;21051;-91
2022/08/02 01:24:28;;;;;;;4.97;2.80;;;;;;;17.80;68.36;101277.73;1671621;84;21135;-91
2022/08/02 01:27:11;;;;;;;5.55;2.92;;;;;;;17.80;68.55;101279.06;1687010;83;21763;-92
2022/08/02 01:29:40;;;;;;;;;;;;;;;17.78;68.70;101279.05;1690114;85;21108;-91
2022/08/02 01:32:17;;;;;;;4.37;2.67;;;;;;;17.76;68.89;101281.28;1681693;85;20169;-91
2022/08/02 01:34:59;;;;;;;4.65;2.92;;;;;;;17.73;68.98;101284.80;1682795;85;21144;-92
2022/08/02 01:37:48;;;;;;;4.83;3.00;;;;;;;17.70;69.19;101284.80;1684302;85;21089;-91
2022/08/02 01:40:22;;;;;;;5.55;3.10;;;;;;;17.65;69.26;101287.43;1655720;86;22346;-90
2022/08/02 01:42:50;;;;;;;;;;;;;;;17.60;69.39;101290.50;1660506;86;21235;-91
2022/08/02 01:45:18;;;;;;;6.37;3.02;;;;;;;17.56;69.64;101281.18;1661544;86;20520;-91
2022/08/02 01:47:45;;;;;;;6.67;3.10;;;;;;;17.50;69.77;101280.71;1640594;86;21241;-91
2022/08/02 01:50:15;;;;;;;8.48;3.40;;;;;;;17.45;69.96;101275.80;1661914;86;21124;-90
2022/08/02 01:52:47;;;;;;;8.98;2.90;;;;;;;17.42;70.09;101280.67;1663204;86;21802;-90
2022/08/02 01:55:20;;;;;;;3.60;2.92;;;;;;;17.41;70.29;101276.67;1662625;85;21720;-91
2022/08/02 01:57:53;;;;;;;7.97;3.17;;;;;;;17.41;70.48;101285.53;1662086;85;21595;-92
2022/08/02 02:00:21;;;;;;;3.83;2.95;;;;;;;17.41;70.65;101286.86;1662391;86;21084;-91
2022/08/02 02:02:49;;;;;;;6.00;3.35;;;;;;;17.40;70.76;101281.53;1662088;86;21119;-91
2022/08/02 02:05:18;;;;;;;6.87;3.22;;;;;;;17.38;70.91;101289.95;1661722;85;21789;-85
2022/08/02 02:07:47;;;;;;;5.28;3.33;;;;;;;17.33;71.04;101295.26;1661740;85;21112;-86
2022/08/02 02:10:16;;;;;;;4.12;3.15;;;;;;;17.27;71.16;101298.77;1661616;84;21163;-85
2022/08/02 02:12:43;;;;;;;5.50;3.08;;;;;;;17.20;71.22;101292.95;1661642;84;21723;-85
2022/08/02 02:15:11;;;;;;;6.60;3.67;;;;;;;17.14;71.41;101294.70;1680280;83;21101;-85
2022/08/02 02:17:43;;;;;;;4.92;3.45;;;;;;;17.06;71.54;101295.95;1683194;83;21762;-85
2022/08/02 02:20:16;;;;;;;5.40;3.80;;;;;;;17.00;71.73;101301.23;1684190;83;21085;-85
2022/08/02 02:22:43;;;;;;;6.50;4.37;;;;;;;16.91;71.93;101299.39;1682818;83;21121;-85
2022/08/02 02:25:10;;;;;;;4.97;3.65;;;;;;;16.86;72.14;101308.67;1690795;84;21033;-85
2022/08/02 02:27:38;;;;;;;6.33;3.87;;;;;;;16.80;72.34;101313.00;1683259;84;21038;-85
2022/08/02 02:30:07;;;;;;;6.22;3.70;;;;;;;16.75;72.56;101315.63;1683312;84;21748;-85
2022/08/02 02:32:34;;;;;;;3.72;3.42;;;;;;;16.70;72.79;101313.36;1677596;84;21133;-85
2022/08/02 02:35:01;;;;;;;6.50;3.75;;;;;;;16.66;72.91;101315.10;1661676;85;21075;-85
2022/08/02 02:37:28;;;;;;;4.12;3.70;;;;;;;16.63;73.11;101311.52;1661654;85;21151;-85
2022/08/02 02:39:54;;;;;;;7.05;3.70;;;;;;;16.58;73.31;101308.84;1664231;86;21578;-85
2022/08/02 02:42:27;;;;;;;5.53;3.75;;;;;;;16.56;73.50;101313.25;1642259;86;22736;-85
2022/08/02 02:44:54;;;;;;;6.37;3.72;;;;;;;16.54;73.71;101313.68;1663887;84;21066;-85
2022/08/02 02:47:20;;;;;;;8.25;3.67;;;;;;;16.52;73.85;101311.45;1665504;85;21064;-85
2022/08/02 02:49:47;;;;;;;4.83;3.83;;;;;;;16.50;73.94;101309.22;1661162;84;21101;-85
2022/08/02 02:52:16;;;;;;;5.12;3.65;;;;;;;16.50;74.15;101314.53;1668274;85;21061;-85
2022/08/02 02:54:46;;;;;;;6.03;4.20;;;;;;;16.48;74.29;101309.64;1671329;83;21765;-85
2022/08/02 02:57:13;;;;;;;6.45;3.70;;;;;;;16.47;74.41;101311.83;1683855;84;21091;-85
2022/08/02 02:59:40;;;;;;;4.10;3.70;;;;;;;16.47;74.49;101317.15;1684538;83;21087;-85
2022/08/02 03:02:07;;;;;;;7.05;3.95;;;;;;;16.47;74.61;101320.69;1684956;84;21985;-85
2022/08/02 03:04:34;;;;;;;7.55;3.83;;;;;;;16.47;74.67;101322.46;1684335;84;21079;-85
2022/08/02 03:07:01;;;;;;;6.60;3.65;;;;;;;16.46;74.82;101314.02;1683638;84;21753;-85
2022/08/02 03:09:27;;;;;;;3.80;3.40;;;;;;;16.47;74.87;101322.02;1684040;83;21753;-85
2022/08/02 03:11:54;;;;;;;5.90;4.00;;;;;;;16.49;74.98;101320.70;1655899;86;21101;-85
2022/08/02 03:14:21;;;;;;;5.97;4.08;;;;;;;16.49;75.02;101316.27;1685437;84;21071;-85
2022/08/02 03:16:50;;;;;;;10.13;4.10;;;;;;;16.53;75.12;101317.20;1673114;84;21568;-85
2022/08/02 03:19:17;;;;;;;6.85;3.98;;;;;;;16.56;75.12;101322.55;1678168;84;21752;-85
2022/08/02 03:21:45;;;;;;;4.65;3.65;;;;;;;16.60;75.17;101327.02;1690188;84;21107;-85
2022/08/02 03:24:13;;;;;;;5.33;3.65;;;;;;;16.63;75.25;101332.79;1704333;83;21143;-85
2022/08/02 03:26:39;;;;;;;5.85;3.95;;;;;;;16.66;75.26;101331.05;1695925;83;21057;-85
2022/08/02 03:29:06;;;;;;;5.47;3.47;;;;;;;16.72;75.32;101330.22;1683243;84;21965;-85
2022/08/02 03:31:33;;;;;;;5.65;3.70;;;;;;;16.77;75.32;101332.48;1670378;83;21248;-85
2022/08/02 03:34:00;;;;;;;7.17;3.25;;;;;;;16.86;75.32;101330.39;1684308;85;21063;-85
2022/08/02 03:36:30;;;;;;;4.00;3.25;;;;;;;16.95;75.33;101333.55;1682546;84;21082;-85
2022/08/02 03:38:57;;;;;;;5.25;3.87;;;;;;;17.07;75.34;101338.52;1661340;84;21094;-84
2022/08/02 03:41:24;;;;;;;5.03;3.00;;;;;;;17.21;75.21;101331.08;1683343;83;21127;-85
2022/08/02 03:43:51;;;;;;;6.95;4.55;;;;;;;17.40;75.34;101334.34;1674600;83;21814;-85
2022/08/02 03:46:20;;;;;;;6.75;3.42;;;;;;;17.75;75.40;101328.74;1665485;84;21069;-85
2022/08/02 03:48:47;;;;;;;10.08;3.60;;;;;;;18.34;75.65;101340.09;1667649;84;21136;-85
2022/08/02 03:51:14;;;;;;;7.33;2.85;;;;;;;19.54;76.15;101336.53;1664545;86;21578;-85
2022/08/02 03:53:41;;;;;;;6.50;4.10;;;;;;;20.87;74.64;101340.37;1664872;86;21105;-86
2022/08/02 03:56:08;;;;;;;7.55;2.62;;;;;;;22.06;72.67;101339.13;1664709;86;21973;-85
2022/08/02 03:58:35;;;;;;;10.32;2.98;;;;;;;23.16;71.03;101341.97;1662992;84;21165;-85
2022/08/02 04:01:02;;;;;;;7.78;3.60;;;;;;;24.15;68.93;101344.06;1662706;86;21092;-85
2022/08/02 04:03:28;;;;;;;7.67;5.70;;;;;;;25.02;67.11;101342.02;1662761;84;21176;-85
2022/08/02 04:05:57;;;;;;;8.65;3.50;;;;;;;25.80;65.04;101340.84;1664790;85;21094;-85
2022/08/02 04:08:24;;;;;;;4.40;2.50;;;;;;;26.66;64.29;101342.77;1659776;85;21306;-85
2022/08/02 04:13:36;;;;;;;3.90;2.50;;;;;;;28.24;60.38;101352.00;1657123;86;21658;-85
2022/08/02 04:16:11;;;;;;;5.30;2.37;;;;;;;28.86;58.67;101353.13;1644960;86;21322;-85
2022/08/02 04:18:46;;;;;;;5.22;2.62;;;;;;;29.42;57.04;101353.51;1677873;84;21070;-85
2022/08/02 04:21:14;;;;;;;7.60;3.15;;;;;;;30.08;55.50;101355.06;1681845;84;21762;-85
2022/08/02 04:23:41;;;;;;;5.70;2.30;;;;;;;30.45;53.94;101358.77;1634357;86;21127;-86
2022/08/02 04:26:08;;;;;;;4.67;2.67;;;;;;;30.71;52.88;101358.36;1664055;86;21106;-84
2022/08/02 04:28:34;;;;;;;4.67;2.72;;;;;;;31.03;51.62;101359.97;1649237;86;21637;-86
2022/08/02 04:31:11;;;;;;;11.00;2.50;;;;;;;31.38;50.47;101362.67;1669135;84;21112;-87
2022/08/02 04:33:51;;;;;;;4.83;2.50;;;;;;;31.80;50.02;101363.20;1656685;85;21117;-87
2022/08/02 04:36:20;;;;;;;6.58;3.72;;;;;;;32.29;48.77;101368.20;1655186;85;21156;-88
2022/08/02 04:38:51;;;;;;;9.98;4.92;;;;;;;32.79;47.41;101369.48;1653522;84;21199;-88
2022/08/02 04:41:18;;;;;;;9.03;5.65;;;;;;;33.28;46.64;101374.30;1660789;85;21589;-88
2022/08/02 04:43:44;;;;;;;8.30;3.22;;;;;;;33.59;45.21;101381.09;1663428;86;21078;-89
2022/08/02 04:46:11;;;;;;;4.90;2.87;;;;;;;33.85;44.53;101383.59;1665659;86;22664;-91
2022/08/02 04:48:38;;;;;;;7.65;2.67;;;;;;;34.00;43.73;101377.14;1665039;84;21071;-86
2022/08/02 04:51:05;;;;;;;6.90;3.62;;;;;;;34.39;43.66;101381.54;1647366;86;21073;-85
2022/08/02 04:53:32;;;;;;;4.33;2.30;;;;;;;34.98;42.51;101383.51;1649185;85;21071;-86
2022/08/02 04:55:59;;;;;;;6.47;2.55;;;;;;;35.35;42.00;101380.14;1665348;84;21591;-86
2022/08/02 04:58:25;;;;;;;9.53;3.08;;;;;;;36.02;41.44;101375.83;1653101;86;21776;-85
2022/08/02 05:01:28;;;;;;;6.62;3.02;;;;;;;36.23;39.72;101383.03;1661555;86;21113;-93
2022/08/02 05:03:55;;;;;;;6.17;2.90;;;;;;;36.45;38.72;101389.66;1639297;86;21074;-95
2022/08/02 05:06:34;;;;;;;6.97;2.10;;;;;;;36.48;37.98;101397.66;1637082;87;21045;-95
2022/08/02 05:09:01;;;;;;;6.40;2.33;;;;;;;36.69;37.65;101407.55;1637328;87;21610;-95
2022/08/02 05:11:30;;;;;;;5.22;2.98;;;;;;;36.87;37.25;101402.55;1636420;86;21881;-88
2022/08/02 05:13:58;;;;;;;5.55;2.20;;;;;;;37.19;36.23;101410.21;1633999;87;21135;-94
2022/08/02 05:16:45;;;;;;;7.58;2.02;;;;;;;37.55;36.17;101402.33;1634778;85;21172;-94
2022/08/02 05:19:25;;;;;;;5.60;2.50;;;;;;;37.83;35.06;101402.40;1643818;86;21132;-92
2022/08/02 05:21:52;;;;;;;7.10;2.50;;;;;;;38.02;34.30;101402.29;1671238;85;21093;-93
2022/08/02 05:24:19;;;;;;;8.88;2.95;;;;;;;37.90;33.55;101410.53;1671343;84;21736;-93
2022/08/02 05:26:59;;;;;;;6.67;2.62;;;;;;;37.78;33.38;101416.13;1647997;84;21071;-93
2022/08/02 05:29:26;;;;;;;5.35;2.30;;;;;;;37.95;33.18;101419.77;1665515;86;21037;-93
2022/08/02 05:31:53;;;;;;;5.12;2.33;;;;;;;38.16;32.95;101416.30;1667138;84;21159;-94
2022/08/02 05:34:19;;;;;;;5.53;2.05;;;;;;;38.63;32.76;101419.30;1665527;85;21336;-93
2022/08/02 05:36:46;;;;;;;8.20;3.00;;;;;;;39.13;32.40;101413.79;1667093;84;21708;-93
2022/08/02 05:39:13;;;;;;;11.88;2.60;;;;;;;39.33;31.31;101420.34;1667214;84;21092;-93
2022/08/02 05:41:40;;;;;;;14.18;3.17;;;;;;;39.12;30.74;101417.53;1667514;85;21120;-93
2022/08/02 05:44:07;;;;;;;8.28;5.17;;;;;;;37.79;30.10;101424.26;1664584;84;21148;-92
2022/08/02 05:46:34;;;;;;;7.03;2.65;;;;;;;35.26;29.99;101429.55;1664514;84;21073;-93
2022/08/02 05:49:02;;;;;;;9.63;2.30;;;;;;;32.60;31.17;101425.07;1664791;85;21769;-93
2022/08/02 05:51:37;;;;;;;7.03;2.50;;;;;;;30.45;32.85;101430.77;1653791;85;21625;-92
2022/08/02 05:54:15;;;;;;;6.70;4.17;;;;;;;28.98;34.38;101430.80;1619096;87;21119;-92
2022/08/02 05:57:12;;;;;;;7.95;3.80;;;;;;;27.68;35.77;101435.68;1637549;85;21410;-92
2022/08/02 05:59:53;;;;;;;8.20;2.27;;;;;;;26.41;37.02;101438.01;1629811;84;21116;-92
2022/08/02 06:02:44;;;;;;;9.60;2.80;;;;;;;25.25;38.82;101437.56;1665736;86;21806;-93
2022/08/02 06:05:18;;;;;;;10.93;2.52;;;;;;;24.40;40.28;101443.95;1653230;86;21050;-93
2022/08/02 06:07:46;;;;;;;8.08;2.50;;;;;;;23.90;41.48;101437.83;1641149;86;21073;-93
2022/08/02 06:10:15;;;;;;;6.45;2.22;;;;;;;23.57;42.27;101444.21;1638028;87;21088;-93
2022/08/02 06:12:52;;;;;;;5.53;2.12;;;;;;;23.23;42.93;101432.70;1637929;86;21114;-93
2022/08/02 06:15:20;;;;;;;10.20;2.45;;;;;;;22.94;43.67;101435.81;1640588;87;21772;-93
2022/08/02 06:17:46;;;;;;;7.58;1.92;;;;;;;22.63;44.30;101438.49;1641631;87;22262;-93
2022/08/02 06:20:14;;;;;;;8.50;2.42;;;;;;;22.38;44.83;101439.76;1640879;86;21184;-93
2022/08/02 06:22:42;;;;;;;9.70;2.25;;;;;;;22.24;45.29;101447.49;1639287;87;21239;-92
2022/08/02 06:25:12;;;;;;;9.50;5.30;;;;;;;22.12;45.80;101454.33;1639484;85;21069;-93
2022/08/02 06:27:40;;;;;;;7.50;2.40;;;;;;;22.01;46.03;101448.20;1668545;84;21757;-93
2022/08/02 06:30:08;;;;;;;7.25;2.25;;;;;;;22.01;46.31;101450.88;1686913;84;21107;-93
2022/08/02 06:32:35;;;;;;;10.60;3.75;;;;;;;21.87;46.20;101463.11;1644756;86;21079;-92
2022/08/02 06:35:04;;;;;;;8.58;3.10;;;;;;;21.72;46.42;101460.13;1645917;86;21185;-93
2022/08/02 06:37:41;;;;;;;8.60;2.08;;;;;;;21.61;46.80;101468.72;1636194;87;21388;-93
2022/08/02 06:40:19;;;;;;;9.10;2.67;;;;;;;21.48;46.82;101464.80;1639646;87;21785;-93
2022/08/02 06:43:10;;;;;;;11.25;2.52;;;;;;;21.45;47.15;101467.49;1639714;87;21118;-93
2022/08/02 06:45:36;;;;;;;9.18;2.62;;;;;;;21.44;47.35;101470.17;1639709;87;21470;-93
2022/08/02 06:48:20;;;;;;;14.87;3.77;;;;;;;21.50;46.75;101473.70;1641573;87;41670;-92
2022/08/02 06:50:46;;;;;;;4.47;1.92;;;;;;;21.48;46.63;101482.67;1658457;85;21057;-93
2022/08/02 06:53:30;;;;;;;14.65;5.30;;;;;;;21.48;46.83;101484.89;1666214;86;22661;-92
2022/08/02 06:55:57;;;;;;;12.30;5.62;;;;;;;21.53;46.70;101472.36;1668188;86;21045;-92
2022/08/02 06:58:24;;;;;;;6.83;2.60;;;;;;;21.50;46.63;101480.41;1666604;86;21065;-93
2022/08/02 07:00:51;;;;;;;9.10;2.80;;;;;;;21.49;46.68;101479.98;1664864;84;21092;-93
2022/08/02 07:03:18;;;;;;;7.47;2.27;;;;;;;21.38;46.61;101476.91;1667288;86;21088;-93
2022/08/02 07:05:48;;;;;;;8.80;3.05;;;;;;;21.30;46.76;101479.22;1670604;84;22570;-93
2022/08/02 07:08:19;;;;;;;8.90;2.17;;;;;;;21.27;46.82;101481.03;1688570;83;21121;-93
2022/08/02 07:10:45;;;;;;;6.22;2.60;;;;;;;21.29;46.90;101476.55;1668375;83;21104;-93
2022/08/02 07:13:12;;;;;;;9.43;1.98;;;;;;;21.26;46.95;101480.11;1666796;84;21109;-93
2022/08/02 07:15:39;;;;;;;5.42;1.80;;;;;;;21.32;47.08;101487.21;1666016;86;21096;-93
2022/08/02 07:18:06;;;;;;;7.53;2.40;;;;;;;21.44;46.98;101488.92;1668502;86;21804;-92
2022/08/02 07:20:33;;;;;;;10.70;2.40;;;;;;;21.55;46.81;101490.64;1658503;83;21662;-93
2022/08/02 07:22:59;;;;;;;6.03;1.55;;;;;;;21.61;46.47;101488.81;1669122;84;21126;-93
2022/08/02 07:25:26;;;;;;;9.78;2.20;;;;;;;21.68;46.10;101492.77;1676201;83;21081;-93
2022/08/02 07:27:55;;;;;;;10.05;1.92;;;;;;;21.77;45.97;101486.41;1667759;85;21176;-92
2022/08/02 07:30:36;;;;;;;10.93;2.37;;;;;;;21.90;45.62;101493.45;1645272;86;21963;-93
2022/08/02 07:33:03;;;;;;;4.72;2.00;;;;;;;21.92;44.52;101499.68;1657369;84;21078;-93
2022/08/02 07:35:30;;;;;;;5.40;1.72;;;;;;;21.90;44.13;101501.92;1666116;86;21131;-86
2022/08/02 07:38:01;;;;;;;6.85;1.55;;;;;;;21.88;43.79;101505.07;1663853;86;21065;-86
2022/08/02 07:40:28;;;;;;;8.05;5.42;;;;;;;21.91;43.48;101510.41;1665598;86;21153;-93
2022/08/02 07:42:56;;;;;;;6.33;2.37;;;;;;;21.97;43.29;101506.78;1667568;83;21661;-93
2022/08/02 07:45:23;;;;;;;7.62;2.87;;;;;;;21.94;43.03;101508.59;1668561;84;21205;-86
2022/08/02 07:47:50;;;;;;;8.38;4.08;;;;;;;21.86;42.72;101505.08;1645562;84;21375;-86
2022/08/02 07:50:23;;;;;;;6.70;2.00;;;;;;;21.93;42.81;101512.63;1667375;83;21199;-93
2022/08/02 07:52:49;;;;;;;5.28;1.52;;;;;;;22.00;42.71;101510.32;1675605;84;21067;-93
2022/08/02 07:55:19;;;;;;;5.35;2.60;;;;;;;22.03;42.36;101511.61;1677700;83;21811;-86
2022/08/02 07:57:46;;;;;;;4.35;1.80;;;;;;;22.05;42.24;101515.16;1680287;85;21071;-87
2022/08/02 08:00:15;;;;;;;5.60;1.70;;;;;;;22.06;42.38;101512.92;1684316;83;21134;-93
2022/08/02 08:02:42;;;;;;;7.83;2.60;;;;;;;22.06;42.39;101504.88;1685127;85;21170;-94
2022/08/02 08:05:09;;;;;;;7.85;1.62;;;;;;;22.16;42.50;101510.16;1685598;83;21151;-93
2022/08/02 08:07:35;;;;;;;10.85;2.27;;;;;;;22.20;42.42;101511.42;1692967;84;21780;-87
2022/08/02 08:10:04;;;;;;;12.03;2.77;;;;;;;22.26;42.44;101511.84;1655132;85;21168;-86
2022/08/02 08:12:30;;;;;;;8.20;4.55;;;;;;;22.35;42.42;101513.55;1692104;83;21118;-86
2022/08/02 08:14:57;;;;;;;5.42;2.05;;;;;;;22.40;42.06;101507.22;1691792;83;21617;-86
2022/08/02 08:17:24;;;;;;;7.15;1.85;;;;;;;22.39;41.89;101510.83;1686512;83;22163;-86
2022/08/02 08:19:51;;;;;;;5.05;1.55;;;;;;;22.39;41.64;101508.14;1671703;85;22528;-86
2022/08/02 08:22:18;;;;;;;7.62;1.72;;;;;;;22.44;41.81;101515.66;1669016;84;21207;-86
2022/08/02 08:24:45;;;;;;;4.25;1.52;;;;;;;22.49;41.58;101509.79;1665393;85;21143;-86
2022/08/02 08:27:14;;;;;;;7.10;2.00;;;;;;;22.42;41.30;101509.42;1666613;83;21622;-86
2022/08/02 08:29:42;;;;;;;5.47;2.05;;;;;;;22.41;41.03;101513.03;1668664;84;21192;-85
2022/08/02 08:32:09;;;;;;;7.75;1.52;;;;;;;22.40;40.75;101515.73;1649052;84;22635;-86
2022/08/02 08:34:35;;;;;;;4.70;1.60;;;;;;;22.43;40.80;101515.24;1668913;84;21076;-86
2022/08/02 08:37:02;;;;;;;6.33;1.72;;;;;;;22.52;40.53;101520.92;1667193;84;21081;-86
2022/08/02 08:39:45;;;;;;;6.17;1.75;;;;;;;22.59;40.34;101523.97;1668575;84;21096;-86
2022/08/02 08:42:13;;;;;;;8.03;3.22;;;;;;;22.65;40.44;101517.64;1668829;83;21092;-86
2022/08/02 08:44:40;;;;;;;6.37;2.33;;;;;;;22.68;40.29;101517.61;1665173;84;21747;-86
2022/08/02 08:47:07;;;;;;;6.30;1.72;;;;;;;22.67;40.19;101512.71;1669570;83;21116;-86
2022/08/02 08:49:43;;;;;;;4.75;1.47;;;;;;;22.68;40.36;101515.81;1666997;84;21152;-86
2022/08/02 08:52:10;;;;;;;4.65;1.42;;;;;;;22.75;40.47;101511.70;1675242;85;21620;-92
2022/08/02 08:54:37;;;;;;;6.15;1.40;;;;;;;22.84;40.60;101511.57;1701003;84;21112;-93
2022/08/02 08:57:05;;;;;;;4.30;1.30;;;;;;;22.89;40.48;101515.09;1672742;83;21789;-93
2022/08/02 08:59:32;;;;;;;7.00;1.60;;;;;;;22.90;40.22;101514.19;1700848;82;21047;-93
2022/08/02 09:01:59;;;;;;;6.80;2.37;;;;;;;22.93;40.10;101515.47;1699124;84;21084;-92
2022/08/02 09:04:31;;;;;;;5.45;1.70;;;;;;;22.99;40.08;101518.52;1693264;83;21208;-86
2022/08/02 09:07:23;;;;;;;6.95;1.57;;;;;;;23.02;39.82;101516.69;1698760;83;21067;-86
2022/08/02 09:09:44;;;;;;;;;;;;;;;;;;;;;
2022/08/02 09:12:20;;;;;;;9.43;4.10;;;;;;;23.03;39.50;101526.56;1640892;85;21225;-87
2022/08/02 09:14:47;;;;;;;7.45;2.20;;;;;;;23.00;39.58;101521.19;1669701;84;21026;-86
2022/08/02 09:17:13;;;;;;;7.12;3.42;;;;;;;23.01;39.46;101527.01;1695809;83;21061;-86
2022/08/02 09:19:40;;;;;;;5.22;1.80;;;;;;;23.04;39.18;101521.61;1696285;84;21075;-93
2022/08/02 09:22:09;;;;;;;8.33;2.58;;;;;;;23.13;39.36;101526.44;1695882;84;21902;-92
2022/08/02 09:24:56;;;;;;;3.83;1.42;;;;;;;23.23;39.24;101525.37;1696886;84;21108;-93
2022/08/02 09:27:24;;;;;;;6.95;2.10;;;;;;;23.28;39.06;101518.14;1693356;82;21980;-92
2022/08/02 09:29:53;;;;;;;6.58;2.95;;;;;;;23.30;38.92;101514.97;1665273;84;21551;-92
2022/08/02 09:32:46;;;;;;;7.00;1.57;;;;;;;23.37;38.85;101513.97;1673137;85;21072;-92
2022/08/02 09:35:14;;;;;;;5.22;2.05;;;;;;;23.47;38.68;101517.38;1666827;85;22602;-92
2022/08/02 09:37:41;;;;;;;4.80;1.92;;;;;;;23.54;38.36;101527.55;1667559;85;21070;-94
2022/08/02 09:40:10;;;;;;;2.98;1.30;;;;;;;23.55;38.02;101519.94;1697442;83;21675;-92
2022/08/02 09:42:38;;;;;;;4.65;1.57;;;;;;;23.51;37.85;101519.56;1698836;84;21092;-92
2022/08/02 09:45:06;;;;;;;3.95;2.00;;;;;;;23.53;37.89;101519.95;1694547;83;21070;-92
2022/08/02 09:47:32;;;;;;;4.65;2.22;;;;;;;23.57;37.42;101516.30;1700000;84;21792;-92
2022/08/02 09:49:59;;;;;;;4.75;1.32;;;;;;;23.52;37.32;101518.20;1698840;83;21085;-92
2022/08/02 09:52:30;;;;;;;9.93;1.37;;;;;;;23.52;37.11;101517.30;1696220;83;21067;-93
2022/08/02 09:55:04;;;;;;;4.10;1.22;;;;;;;23.38;37.18;101510.81;1695110;84;21148;-92
2022/08/02 09:57:37;;;;;;;2.98;1.07;;;;;;;23.31;37.36;101503.76;1687023;84;21172;-92
2022/08/02 10:00:11;;;;;;;5.35;1.60;;;;;;;23.31;37.51;101505.98;1689817;84;21784;-92
2022/08/02 10:02:38;;;;;;;5.00;1.98;;;;;;;23.32;37.36;101503.73;1698915;84;21060;-91
2022/08/02 10:05:05;;;;;;;6.50;2.17;;;;;;;23.26;36.57;101500.70;1698110;84;21049;-86
2022/08/02 10:07:32;;;;;;;10.63;3.65;;;;;;;23.25;36.69;101495.34;1696285;84;21206;-84
2022/08/02 10:09:59;;;;;;;6.10;2.98;;;;;;;23.25;36.62;101498.03;1696649;83;21619;-86
2022/08/02 10:12:26;;;;;;;6.17;1.32;;;;;;;23.29;36.59;101499.31;1693476;84;21748;-85
2022/08/02 10:14:52;;;;;;;3.58;1.42;;;;;;;23.32;36.78;101498.37;1695758;84;21080;-85
2022/08/02 10:17:19;;;;;;;5.37;2.92;;;;;;;23.34;36.41;101504.59;1694562;84;21682;-84
2022/08/02 10:19:47;;;;;;;7.42;2.70;;;;;;;23.32;36.37;101497.48;1693982;83;21555;-84
2022/08/02 10:22:14;;;;;;;6.92;1.98;;;;;;;23.32;36.58;101497.02;1682920;83;21098;-85
2022/08/02 10:24:41;;;;;;;5.53;1.98;;;;;;;23.33;36.63;101489.41;1692800;84;22446;-94
2022/08/02 10:27:16;;;;;;;8.13;2.27;;;;;;;23.36;36.64;101493.38;1699373;84;21602;-93
2022/08/02 10:29:45;;;;;;;6.37;2.90;;;;;;;23.39;36.39;101487.95;1699335;83;21124;-93
2022/08/02 10:32:29;;;;;;;7.97;3.65;;;;;;;23.44;36.36;101496.84;1695296;84;21105;-92
2022/08/02 10:35:07;;;;;;;5.00;1.40;;;;;;;23.48;36.51;101493.18;1680183;84;21701;-93
2022/08/02 10:37:35;;;;;;;6.85;1.80;;;;;;;23.58;36.67;101491.69;1698847;84;21774;-93
2022/08/02 10:40:02;;;;;;;4.37;2.17;;;;;;;23.71;36.61;101491.89;1693516;84;21088;-84
2022/08/02 10:42:52;;;;;;;6.20;2.62;;;;;;;23.81;36.40;101488.61;1699001;84;21605;-94
2022/08/02 10:45:21;;;;;;;8.68;2.85;;;;;;;23.89;36.00;101485.78;1689250;83;21081;-93
2022/08/02 10:48:10;;;;;;;4.83;1.52;;;;;;;23.96;35.72;101481.59;1695317;83;21159;-93
2022/08/02 10:51:05;;;;;;;6.10;1.70;;;;;;;24.05;35.69;101486.80;1693940;84;22616;-94
2022/08/02 10:53:33;;;;;;;7.62;1.22;;;;;;;24.16;35.34;101493.80;1686348;84;21672;-93
2022/08/02 10:56:02;;;;;;;12.35;2.55;;;;;;;24.21;35.14;101482.45;1680580;84;21112;-93
2022/08/02 10:58:33;;;;;;;4.45;1.00;;;;;;;24.25;35.08;101484.16;1698812;83;21191;-93
2022/08/02 11:01:05;;;;;;;6.00;1.45;;;;;;;24.32;34.96;101483.12;1708542;83;21082;-93
2022/08/02 11:03:35;;;;;;;9.20;3.55;;;;;;;24.45;35.14;101479.73;1706544;83;21778;-94
2022/08/02 11:06:12;;;;;;;7.42;3.62;;;;;;;24.61;35.01;101490.63;1711058;83;21142;-94
2022/08/02 11:09:18;;;;;;;4.80;2.92;;;;;;;24.69;34.61;101485.55;1691859;83;21121;-93
2022/08/02 11:12:03;;;;;;;5.58;2.58;;;;;;;24.75;34.74;101479.55;1688909;83;21045;-93
2022/08/02 11:14:33;;;;;;;2.55;1.77;;;;;;;24.91;34.31;101480.54;1690204;83;21577;-92
2022/08/02 11:17:06;;;;;;;5.72;1.92;;;;;;;24.98;34.03;101483.52;1684852;83;22630;-92
2022/08/02 11:19:33;;;;;;;3.40;1.27;;;;;;;24.98;33.61;101477.70;1699778;83;21629;-92
2022/08/02 11:22:11;;;;;;;3.15;1.27;;;;;;;25.00;33.81;101481.23;1692631;83;21092;-93
2022/08/02 11:24:40;;;;;;;6.58;2.45;;;;;;;25.02;33.65;101475.82;1648484;85;21075;-93
2022/08/02 11:27:08;;;;;;;5.00;1.27;;;;;;;25.01;33.60;101482.99;1668158;84;21551;-93
2022/08/02 11:29:40;;;;;;;5.25;1.70;;;;;;;25.03;33.44;101489.70;1669657;84;21801;-93
2022/08/02 11:32:10;;;;;;;4.72;2.10;;;;;;;25.03;33.25;101481.61;1667858;85;21520;-93
2022/08/02 11:34:38;;;;;;;6.03;1.20;;;;;;;25.01;33.29;101480.30;1665891;84;21058;-93
2022/08/02 11:37:04;;;;;;;9.13;1.27;;;;;;;25.04;32.97;101484.75;1669532;85;21049;-92
2022/08/02 11:39:31;;;;;;;6.15;1.15;;;;;;;25.06;32.89;101475.26;1700408;83;21057;-92
2022/08/02 11:41:59;;;;;;;8.13;2.42;;;;;;;25.14;32.86;101470.59;1671371;83;21750;-93
2022/08/02 11:44:27;;;;;;;8.48;3.72;;;;;;;25.19;32.92;101473.59;1644546;84;21095;-93
2022/08/02 11:47:00;;;;;;;7.62;2.72;;;;;;;25.29;32.80;101477.45;1653548;84;21113;-93